Keystone, Ohio
Current Conditions -  °F | °C
As of 7:15 AM on Friday 31 Oct 2014 (Local Time) from KUNI Reporting Station
Overcast Overcast  
Wind Chill: 38°   Ceiling: 4600
Heat Index: 38°   Visibility: 10mi
Dew Point: 36°   Wind: 0mph
Humidity: 92%   Direction: NA
Pressure: 29.98"   Gusts: NA
Location:  38.99°N, 82.61°W
Report Text: KUNI 311115Z AUTO 00000KT 10SM OVC046 03/02 A2998 RMK AO2 T00330021
Loading
Personal Weather Stations






























Interactive Weather Map
Tropical Storm Tracking
New forecast layout! Learn more

10-Day Weather Forecast

Advertisements
Track Severe Weather on mobile